Friday, July 20, 2018, 12:37 PM EDT
Back to Local

KCLE, Cleveland-hopkins International

Location: Cleveland, OH, United States Lat: 41.4
Local Time: 12:37 PM EDT (16:37 GMT) Lon: -81.85
Time Zone: US/Eastern Elev: 790 ft

Show me the last for .
Show Decoded

2018-07-20 11:51 METAR KCLE 201551Z 18011KT 10SM FEW060 SCT180 BKN250 28/19 A2992 RMK AO2 SLP127
                 T02830189 =
2018-07-20 10:51 METAR KCLE 201451Z 18014G20KT 10SM FEW060 SCT150 BKN250 28/18 A2993 RMK AO2
                 SLP128 T02780178 58005 =
2018-07-20 09:51 METAR KCLE 201351Z 17012KT 10SM FEW055 SCT150 BKN250 26/18 A2993 RMK AO2 SLP129
                 T02610178 =
2018-07-20 08:51 METAR KCLE 201251Z 18013KT 10SM FEW055 SCT130 BKN250 26/17 A2995 RMK AO2 SLP135
                 T02560172 =
2018-07-20 07:51 METAR KCLE 201151Z 16011KT 10SM FEW055 SCT130 BKN250 23/17 A2995 RMK AO2 SLP134
                 T02280167 10228 20200 56003 =
2018-07-20 06:51 METAR KCLE 201051Z 16011KT 10SM FEW050 FEW070 SCT130 BKN250 22/16 A2995 RMK AO2
                 SLP136 MDT CU DSNT S-SW T02170161 $ =
2018-07-20 05:51 METAR KCLE 200951Z 16009KT 10SM FEW065 FEW080 BKN250 21/16 A2995 RMK AO2 SLP135
                 T02110156 $ =
2018-07-20 04:51 METAR KCLE 200851Z 16009KT 10SM SCT070 SCT250 21/15 A2995 RMK AO2 SLP137
                 T02110150 57007 $ =
2018-07-20 03:51 METAR KCLE 200751Z 15006KT 10SM SCT065 21/14 A2997 RMK AO2 SLP141 T02060144 $ =
2018-07-20 02:51 METAR KCLE 200651Z 14005KT 10SM SCT060 21/14 A2996 RMK AO2 SLP141 T02110144 $ =
2018-07-20 01:51 METAR KCLE 200551Z 14005KT 10SM FEW130 21/14 A2998 RMK AO2 SLP145 T02110139
                 10267 20200 58011 $ =
2018-07-20 00:51 METAR KCLE 200451Z 14006KT 10SM CLR 20/14 A3000 RMK AO2 SLP152 T02000144
                 402940144 $ =
2018-07-19 23:51 METAR KCLE 200351Z 15006KT 10SM FEW250 22/14 A3000 RMK AO2 SLP153 T02170144 $ =
2018-07-19 22:51 METAR KCLE 200251Z 15004KT 10SM FEW250 23/16 A3001 RMK AO2 SLP156 T02330161
                 53003 $ =
2018-07-19 21:51 METAR KCLE 200151Z 17003KT 10SM FEW250 25/18 A3001 RMK AO2 SLP155 T02500178 $ =
2018-07-19 20:51 METAR KCLE 200051Z 24006KT 10SM FEW250 25/17 A2999 RMK AO2 SLP152 T02500172 $ =
2018-07-19 19:51 METAR KCLE 192351Z 35006KT 10SM SCT250 27/17 A3000 RMK AO2 SLP153 T02670172
                 10294 20267 58012 $ =
2018-07-19 18:51 METAR KCLE 192251Z 01008KT 10SM SCT200 28/17 A3001 RMK AO2 SLP159 T02780167 $ =
2018-07-19 17:51 METAR KCLE 192151Z 01009KT 10SM SCT200 28/17 A3002 RMK AO2 SLP162 T02780167 $ =
2018-07-19 16:51 METAR KCLE 192051Z 03011KT 10SM BKN250 28/17 A3003 RMK AO2 SLP166 T02830167
                 56015 $ =
2018-07-19 15:51 METAR KCLE 191951Z VRB03KT 10SM BKN250 29/13 A3004 RMK AO2 SLP168 T02890133 $ =
2018-07-19 14:51 METAR KCLE 191851Z 17004KT 10SM BKN250 28/12 A3006 RMK AO2 SLP175 T02780122 $ =
2018-07-19 13:51 METAR KCLE 191751Z VRB03KT 10SM BKN250 28/13 A3008 RMK AO2 SLP181 T02780128
                 10278 20183 58014 $ =
2018-07-19 12:51 METAR KCLE 191651Z 00000KT 10SM BKN250 26/12 A3010 RMK AO2 SLP190 T02610117 $ =

Support USWX by starting your Amazon purchase here.